createdAt,value
2022-08-12T00:00:00.790Z,2.90
2022-08-12T00:01:00.782Z,3.00
2022-08-12T00:02:02.644Z,3.10
2022-08-12T00:03:00.822Z,2.70
2022-08-12T00:04:00.732Z,2.70
2022-08-12T00:05:00.724Z,3.00
2022-08-12T00:06:04.554Z,2.30
2022-08-12T00:07:00.692Z,2.50
2022-08-12T00:08:00.684Z,2.80
2022-08-12T00:09:00.676Z,3.30
2022-08-12T00:10:00.652Z,2.90
2022-08-12T00:11:00.652Z,3.10
2022-08-12T00:12:01.635Z,2.70
2022-08-12T00:13:00.625Z,3.20
2022-08-12T00:14:00.602Z,2.60
2022-08-12T00:15:00.594Z,2.50
2022-08-12T00:16:00.589Z,3.20
2022-08-12T00:17:00.573Z,3.00
2022-08-12T00:18:00.559Z,2.60
2022-08-12T00:19:00.536Z,2.50
2022-08-12T00:20:00.530Z,2.90
2022-08-12T00:21:00.526Z,2.40
2022-08-12T00:22:00.497Z,2.90
2022-08-12T00:23:00.487Z,2.90
2022-08-12T00:24:00.467Z,2.60
2022-08-12T00:25:00.460Z,2.50
2022-08-12T00:26:21.298Z,3.00
2022-08-12T00:27:01.439Z,2.70
2022-08-12T00:28:00.420Z,2.90
2022-08-12T00:29:00.414Z,3.10
2022-08-12T00:30:00.402Z,3.30
2022-08-12T00:31:00.390Z,2.40
2022-08-12T00:32:01.283Z,2.70
2022-08-12T00:33:00.484Z,2.70
2022-08-12T00:34:01.290Z,3.50
2022-08-12T00:35:00.332Z,3.00
2022-08-12T00:36:01.443Z,2.50
2022-08-12T00:37:07.275Z,2.50
2022-08-12T00:38:01.281Z,2.60
2022-08-12T00:39:00.271Z,2.90
2022-08-12T00:40:00.276Z,2.60
2022-08-12T00:41:00.253Z,2.70
2022-08-12T00:42:00.234Z,2.90
2022-08-12T00:43:00.226Z,2.50
2022-08-12T00:44:00.219Z,2.40
2022-08-12T00:45:00.207Z,2.80
2022-08-12T00:46:01.137Z,2.90
2022-08-12T00:47:00.164Z,3.00
2022-08-12T00:48:00.157Z,2.60
2022-08-12T00:49:00.144Z,3.20
2022-08-12T00:50:00.159Z,2.40
2022-08-12T00:51:00.125Z,2.90
2022-08-12T00:52:00.114Z,3.10
2022-08-12T00:53:00.085Z,2.80
2022-08-12T00:54:00.076Z,3.30
2022-08-12T00:55:00.064Z,3.10
2022-08-12T00:56:00.047Z,2.60
2022-08-12T00:57:00.037Z,3.10
2022-08-12T00:58:00.018Z,2.80
2022-08-12T00:59:00.010Z,3.00
2022-08-12T00:59:59.988Z,2.80
2022-08-12T01:01:00.069Z,3.10
2022-08-12T01:02:10.268Z,2.50
2022-08-12T01:03:00.957Z,2.70
2022-08-12T01:03:59.939Z,2.70
2022-08-12T01:04:59.934Z,3.10
2022-08-12T01:05:59.921Z,3.00
2022-08-12T01:06:59.909Z,2.60
2022-08-12T01:07:59.885Z,3.10
2022-08-12T01:08:59.871Z,3.10
2022-08-12T01:09:59.858Z,2.60
2022-08-12T01:10:59.851Z,2.70
2022-08-12T01:11:59.832Z,3.00
2022-08-12T01:13:07.411Z,3.10
2022-08-12T01:14:00.808Z,2.70
2022-08-12T01:15:00.744Z,2.90
2022-08-12T01:15:59.785Z,2.70
2022-08-12T01:16:59.766Z,3.10
2022-08-12T01:18:00.693Z,2.30
2022-08-12T01:19:00.692Z,3.00
2022-08-12T01:19:59.723Z,3.20
2022-08-12T01:20:59.724Z,3.90
2022-08-12T01:21:59.695Z,2.80
2022-08-12T01:22:59.691Z,2.50
2022-08-12T01:24:00.625Z,2.90
2022-08-12T01:25:00.666Z,2.40
2022-08-12T01:25:59.658Z,3.10
2022-08-12T01:26:59.649Z,3.10
2022-08-12T01:27:59.615Z,3.10
2022-08-12T01:29:00.555Z,3.00
2022-08-12T01:29:59.593Z,2.80
2022-08-12T01:30:59.587Z,3.10
2022-08-12T01:31:59.558Z,3.20
2022-08-12T01:32:59.554Z,3.20
2022-08-12T01:34:00.490Z,2.80
2022-08-12T01:35:00.477Z,3.70
2022-08-12T01:36:07.831Z,2.90
2022-08-12T01:37:01.458Z,3.00
2022-08-12T01:37:59.478Z,2.80
2022-08-12T01:38:59.477Z,2.70
2022-08-12T01:40:34.440Z,2.90
2022-08-12T01:41:00.546Z,3.40
2022-08-12T01:41:59.421Z,3.20
2022-08-12T01:43:00.371Z,3.20
2022-08-12T01:43:59.411Z,3.50
2022-08-12T01:46:08.606Z,3.40
2022-08-12T01:47:08.590Z,3.20
2022-08-12T01:48:08.564Z,2.90
2022-08-12T01:49:08.554Z,3.00
2022-08-12T01:50:09.526Z,3.10
2022-08-12T01:51:08.530Z,3.20
2022-08-12T01:52:20.745Z,3.40
2022-08-12T01:53:09.502Z,3.30
2022-08-12T01:54:08.495Z,2.90
2022-08-12T01:55:08.496Z,3.00
2022-08-12T01:56:08.463Z,2.90
2022-08-12T01:57:08.445Z,3.20
2022-08-12T01:58:08.446Z,3.00
2022-08-12T01:59:08.426Z,2.90
2022-08-12T02:00:08.418Z,3.20
2022-08-12T02:01:08.431Z,3.50
2022-08-12T02:02:08.388Z,3.20
2022-08-12T02:03:08.369Z,3.40
2022-08-12T02:04:08.359Z,3.50
2022-08-12T02:05:08.350Z,3.60
2022-08-12T02:06:08.329Z,2.80
2022-08-12T02:07:08.320Z,3.20
2022-08-12T02:08:09.269Z,3.10
2022-08-12T02:09:08.289Z,2.80
2022-08-12T02:10:08.290Z,3.40
2022-08-12T02:11:08.266Z,3.40
2022-08-12T02:12:08.572Z,2.40
2022-08-12T02:13:08.240Z,3.30
2022-08-12T02:14:08.231Z,3.20
2022-08-12T02:15:08.220Z,3.40
2022-08-12T02:16:08.209Z,3.30
2022-08-12T02:17:08.188Z,3.20
2022-08-12T02:18:08.172Z,3.30
2022-08-12T02:19:13.701Z,3.20
2022-08-12T02:20:09.162Z,3.30
2022-08-12T02:21:08.152Z,3.10
2022-08-12T02:22:08.122Z,3.30
2022-08-12T02:23:08.110Z,3.90
2022-08-12T02:24:08.104Z,3.50
2022-08-12T02:25:08.086Z,3.80
2022-08-12T02:26:08.069Z,3.10
2022-08-12T02:27:08.055Z,3.40
2022-08-12T02:28:08.330Z,3.40
2022-08-12T02:29:08.027Z,3.20
2022-08-12T02:30:08.024Z,3.50
2022-08-12T02:31:08.003Z,3.40
2022-08-12T02:32:07.986Z,3.30
2022-08-12T02:33:07.976Z,3.10
2022-08-12T02:34:07.966Z,3.30
2022-08-12T02:35:07.956Z,3.40
2022-08-12T02:36:07.943Z,3.50
2022-08-12T02:37:07.917Z,3.10
2022-08-12T02:38:07.917Z,3.50
2022-08-12T02:39:07.899Z,3.70
2022-08-12T02:40:08.874Z,3.40
2022-08-12T02:41:07.867Z,3.20
2022-08-12T02:42:07.865Z,3.40
2022-08-12T02:43:07.848Z,3.80
2022-08-12T02:44:07.829Z,3.50
2022-08-12T02:45:07.826Z,3.30
2022-08-12T02:46:13.197Z,3.20
2022-08-12T02:47:18.160Z,3.00
2022-08-12T02:48:08.779Z,3.90
2022-08-12T02:49:07.759Z,3.40
2022-08-12T02:50:07.763Z,3.80
2022-08-12T02:51:07.740Z,3.60
2022-08-12T02:52:07.731Z,3.40
2022-08-12T02:53:07.711Z,3.80
2022-08-12T02:54:07.703Z,3.60
2022-08-12T02:55:07.691Z,3.40
2022-08-12T02:56:07.683Z,3.60
2022-08-12T02:57:07.664Z,3.50
2022-08-12T02:58:09.185Z,3.30
2022-08-12T02:59:08.635Z,3.70
2022-08-12T03:00:07.636Z,3.30
2022-08-12T03:01:07.680Z,3.40
2022-08-12T03:02:07.594Z,3.00
2022-08-12T03:03:07.585Z,3.40
2022-08-12T03:04:07.574Z,3.20
2022-08-12T03:05:08.565Z,3.80
2022-08-12T03:06:07.544Z,3.50
2022-08-12T03:07:07.525Z,3.30
2022-08-12T03:08:07.525Z,3.30
2022-08-12T03:09:07.496Z,3.40
2022-08-12T03:10:13.022Z,3.10
2022-08-12T03:11:11.747Z,3.60
2022-08-12T03:12:08.466Z,3.30
2022-08-12T03:13:07.611Z,3.60
2022-08-12T03:14:07.438Z,4.20
2022-08-12T03:15:07.438Z,3.10
2022-08-12T03:16:07.418Z,3.80
2022-08-12T03:17:07.398Z,4.00
2022-08-12T03:18:26.529Z,3.40
2022-08-12T03:19:08.370Z,3.50
2022-08-12T03:20:09.924Z,3.30
2022-08-12T03:21:07.340Z,3.60
2022-08-12T03:22:09.725Z,3.70
2022-08-12T03:23:07.319Z,3.40
2022-08-12T03:24:07.310Z,3.90
2022-08-12T03:25:07.307Z,3.40
2022-08-12T03:26:07.280Z,3.40
2022-08-12T03:27:07.270Z,4.20
2022-08-12T03:28:07.251Z,3.40
2022-08-12T03:29:07.249Z,3.70
2022-08-12T03:30:07.234Z,3.30
2022-08-12T03:31:07.213Z,3.40
2022-08-12T03:32:07.201Z,3.20
2022-08-12T03:33:08.197Z,3.80
2022-08-12T03:34:07.174Z,3.40
2022-08-12T03:35:07.178Z,3.90
2022-08-12T03:36:07.154Z,3.60
2022-08-12T03:37:07.134Z,3.80
2022-08-12T03:38:08.772Z,3.90
2022-08-12T03:39:07.116Z,3.90
2022-08-12T03:40:07.176Z,3.40
2022-08-12T03:41:07.094Z,4.00
2022-08-12T03:42:07.066Z,3.60
2022-08-12T03:43:07.065Z,3.60
2022-08-12T03:44:07.036Z,3.60
2022-08-12T03:45:07.046Z,3.50
2022-08-12T03:46:07.016Z,3.90
2022-08-12T03:47:07.007Z,4.00
2022-08-12T03:48:06.986Z,4.10
2022-08-12T03:49:06.987Z,4.30
2022-08-12T03:50:06.967Z,3.40
2022-08-12T03:51:06.958Z,4.20
2022-08-12T03:52:06.937Z,3.90
2022-08-12T03:53:06.937Z,3.90
2022-08-12T03:54:06.909Z,3.90
2022-08-12T03:55:06.918Z,3.90
2022-08-12T03:56:07.846Z,3.50
2022-08-12T03:57:07.826Z,3.70
2022-08-12T03:58:06.881Z,3.60
2022-08-12T03:59:06.870Z,3.50
2022-08-12T04:00:07.780Z,3.80
2022-08-12T04:01:06.910Z,3.40
2022-08-12T04:02:07.752Z,3.60
2022-08-12T04:03:12.758Z,3.40
2022-08-12T04:04:07.780Z,3.90
2022-08-12T04:05:06.771Z,4.20
2022-08-12T04:06:06.753Z,3.90
2022-08-12T04:07:07.703Z,3.40
2022-08-12T04:08:06.722Z,3.60
2022-08-12T04:09:15.915Z,3.90
2022-08-12T04:10:07.704Z,3.40
2022-08-12T04:11:06.693Z,3.70
2022-08-12T04:12:07.632Z,3.70
2022-08-12T04:13:07.622Z,3.30
2022-08-12T04:14:06.670Z,3.70
2022-08-12T04:15:07.602Z,3.50
2022-08-12T04:16:06.628Z,3.70
2022-08-12T04:17:06.617Z,3.70
2022-08-12T04:18:07.969Z,3.80
2022-08-12T04:19:06.586Z,4.10
2022-08-12T04:20:06.577Z,4.00
2022-08-12T04:21:06.566Z,3.60
2022-08-12T04:22:06.566Z,3.90
2022-08-12T04:23:06.539Z,3.40
2022-08-12T04:24:07.466Z,3.30
2022-08-12T04:25:07.465Z,3.80
2022-08-12T04:26:06.498Z,3.70
2022-08-12T04:27:07.447Z,3.90
2022-08-12T04:28:11.162Z,3.60
2022-08-12T04:29:07.468Z,3.30
2022-08-12T04:30:29.550Z,3.90
2022-08-12T04:31:07.428Z,3.60
2022-08-12T04:32:06.409Z,3.80
2022-08-12T04:33:07.358Z,3.90
2022-08-12T04:34:07.338Z,3.70
2022-08-12T04:35:07.347Z,4.10
2022-08-12T04:36:06.364Z,3.90
2022-08-12T04:37:07.306Z,4.20
2022-08-12T04:38:06.331Z,3.50
2022-08-12T04:39:07.283Z,3.40
2022-08-12T04:40:07.263Z,3.30
2022-08-12T04:41:06.309Z,3.90
2022-08-12T04:42:06.283Z,3.70
2022-08-12T04:43:06.275Z,3.70
2022-08-12T04:44:07.252Z,4.20
2022-08-12T04:45:06.253Z,4.40
2022-08-12T04:46:06.232Z,3.80
2022-08-12T04:47:06.223Z,4.00
2022-08-12T04:48:07.150Z,3.90
2022-08-12T04:49:06.193Z,3.90
2022-08-12T04:50:33.907Z,3.40
2022-08-12T04:51:08.122Z,4.40
2022-08-12T04:52:06.145Z,4.00
2022-08-12T04:53:08.390Z,4.50
2022-08-12T04:54:06.125Z,3.80
2022-08-12T04:55:07.073Z,3.90
2022-08-12T04:56:06.098Z,4.00
2022-08-12T04:57:06.134Z,3.90
2022-08-12T04:58:06.066Z,4.00
2022-08-12T04:59:06.858Z,4.00
2022-08-12T05:00:06.046Z,4.90
2022-08-12T05:01:06.045Z,4.90
2022-08-12T05:02:14.547Z,4.00
2022-08-12T05:03:07.018Z,4.60
2022-08-12T05:04:05.997Z,4.50
2022-08-12T05:05:05.999Z,4.40
2022-08-12T05:06:05.969Z,3.50
2022-08-12T05:07:05.948Z,3.80
2022-08-12T05:08:05.950Z,4.20
2022-08-12T05:09:11.127Z,3.90
2022-08-12T05:10:07.873Z,3.70
2022-08-12T05:11:05.900Z,3.70
2022-08-12T05:12:05.879Z,4.10
2022-08-12T05:13:05.872Z,3.70
2022-08-12T05:14:05.861Z,4.00
2022-08-12T05:15:28.021Z,3.80
2022-08-12T05:16:09.190Z,4.20
2022-08-12T05:17:06.530Z,4.20
2022-08-12T05:18:16.837Z,4.10
2022-08-12T05:19:12.890Z,4.70
2022-08-12T05:20:06.792Z,4.20
2022-08-12T05:21:05.772Z,4.60
2022-08-12T05:22:05.753Z,4.70
2022-08-12T05:23:12.164Z,4.60
2022-08-12T05:24:06.724Z,3.80
2022-08-12T05:25:05.720Z,4.10
2022-08-12T05:26:05.705Z,4.00
2022-08-12T05:27:05.687Z,4.50
2022-08-12T05:28:05.679Z,4.30
2022-08-12T05:29:10.445Z,4.70
2022-08-12T05:30:09.189Z,4.30
2022-08-12T05:31:05.635Z,4.20
2022-08-12T05:32:05.624Z,4.10
2022-08-12T05:33:05.618Z,4.20
2022-08-12T05:34:05.596Z,4.30
2022-08-12T05:35:05.595Z,4.20
2022-08-12T05:36:05.567Z,4.30
2022-08-12T05:37:05.557Z,4.30
2022-08-12T05:38:05.548Z,3.70
2022-08-12T05:39:05.539Z,3.80
2022-08-12T05:40:10.624Z,4.00
2022-08-12T05:41:06.514Z,4.00
2022-08-12T05:42:05.510Z,4.60
2022-08-12T05:43:05.477Z,4.80
2022-08-12T05:44:05.471Z,4.00
2022-08-12T05:45:05.459Z,3.60
2022-08-12T05:46:05.441Z,4.00
2022-08-12T05:47:05.428Z,3.90
2022-08-12T05:48:05.409Z,4.30
2022-08-12T05:49:05.501Z,4.10
2022-08-12T05:50:05.383Z,3.70
2022-08-12T05:51:05.381Z,4.10
2022-08-12T05:52:05.369Z,3.70
2022-08-12T05:53:05.353Z,4.00
2022-08-12T05:54:05.333Z,3.90
2022-08-12T05:55:05.322Z,4.10
2022-08-12T05:56:05.313Z,3.40
2022-08-12T05:57:05.301Z,3.50
2022-08-12T05:58:05.282Z,3.90
2022-08-12T05:59:05.273Z,4.10
2022-08-12T06:00:05.255Z,3.90
2022-08-12T06:02:08.819Z,3.80
2022-08-12T06:02:12.396Z,3.60
2022-08-12T06:03:06.289Z,4.00
2022-08-12T06:04:05.205Z,3.70
2022-08-12T06:05:05.186Z,3.90
2022-08-12T06:06:05.176Z,3.60
2022-08-12T06:07:59.407Z,3.10
2022-08-12T06:08:06.147Z,3.40
2022-08-12T06:09:05.137Z,3.50
2022-08-12T06:10:05.126Z,3.90
2022-08-12T06:11:05.120Z,3.60
2022-08-12T06:12:06.662Z,3.90
2022-08-12T06:13:05.090Z,4.00
2022-08-12T06:14:11.943Z,4.00
2022-08-12T06:15:06.079Z,3.80
2022-08-12T06:16:05.049Z,4.00
2022-08-12T06:17:05.038Z,3.80
2022-08-12T06:18:05.020Z,3.60
2022-08-12T06:19:06.021Z,3.90
2022-08-12T06:20:26.731Z,4.60
2022-08-12T06:21:05.990Z,4.10
2022-08-12T06:22:04.971Z,4.70
2022-08-12T06:23:04.952Z,4.20
2022-08-12T06:24:04.953Z,4.20
2022-08-12T06:25:04.941Z,4.50
2022-08-12T06:26:04.936Z,4.10
2022-08-12T06:27:04.905Z,4.10
2022-08-12T06:28:08.283Z,3.90
2022-08-12T06:29:04.908Z,4.50
2022-08-12T06:30:08.283Z,4.10
2022-08-12T06:31:25.231Z,4.30
2022-08-12T06:32:05.839Z,3.90
2022-08-12T06:33:21.128Z,3.70
2022-08-12T06:35:23.054Z,4.00
2022-08-12T06:35:23.503Z,3.90
2022-08-12T06:36:05.787Z,4.00
2022-08-12T06:37:04.777Z,4.60
2022-08-12T06:38:04.760Z,3.80
2022-08-12T06:39:04.756Z,3.40
2022-08-12T06:40:05.760Z,3.80
2022-08-12T06:41:04.734Z,4.20
2022-08-12T06:42:31.790Z,3.60
2022-08-12T06:43:05.699Z,4.10
2022-08-12T06:44:07.792Z,3.70
2022-08-12T06:45:05.497Z,3.80
2022-08-12T06:46:04.656Z,3.90
2022-08-12T06:47:04.650Z,3.50
2022-08-12T06:48:04.637Z,3.60
2022-08-12T06:49:04.634Z,3.30
2022-08-12T06:50:04.599Z,4.00
2022-08-12T06:51:04.593Z,3.70
2022-08-12T06:52:04.599Z,3.70
2022-08-12T06:53:04.572Z,3.40
2022-08-12T06:54:04.563Z,3.70
2022-08-12T06:55:04.542Z,3.30
2022-08-12T06:56:06.365Z,3.20
2022-08-12T06:57:57.439Z,3.40
2022-08-12T06:58:10.055Z,3.30
2022-08-12T06:59:05.494Z,3.10
2022-08-12T07:00:04.474Z,3.40
2022-08-12T07:01:04.541Z,3.70
2022-08-12T07:02:04.445Z,3.20
2022-08-12T07:03:22.547Z,3.40
2022-08-12T07:04:26.320Z,3.30
2022-08-12T07:05:05.405Z,3.70
2022-08-12T07:06:04.392Z,3.00
2022-08-12T07:07:04.377Z,3.20
2022-08-12T07:08:05.112Z,3.50
2022-08-12T07:09:05.366Z,3.80
2022-08-12T07:10:08.154Z,2.80
2022-08-12T07:11:04.324Z,2.80
2022-08-12T07:12:04.308Z,3.30
2022-08-12T07:13:04.307Z,2.50
2022-08-12T07:14:13.191Z,2.90
2022-08-12T07:15:05.275Z,2.80
2022-08-12T07:16:04.260Z,3.80
2022-08-12T07:17:04.250Z,3.20
2022-08-12T07:18:04.230Z,3.20
2022-08-12T07:19:04.221Z,3.10
2022-08-12T07:20:04.832Z,3.10
2022-08-12T07:21:04.191Z,3.00
2022-08-12T07:22:04.172Z,2.60
2022-08-12T07:23:04.183Z,2.90
2022-08-12T07:24:04.205Z,2.70
2022-08-12T07:25:04.142Z,2.50
2022-08-12T07:26:04.132Z,2.60
2022-08-12T07:27:04.109Z,2.80
2022-08-12T07:28:04.104Z,2.80
2022-08-12T07:29:05.083Z,2.90
2022-08-12T07:30:05.401Z,2.80
2022-08-12T07:31:04.064Z,2.50
2022-08-12T07:32:04.043Z,3.20
2022-08-12T07:33:04.044Z,2.60
2022-08-12T07:34:04.058Z,2.40
2022-08-12T07:35:04.145Z,3.30
2022-08-12T07:36:03.986Z,2.70
2022-08-12T07:37:03.976Z,2.60
2022-08-12T07:38:03.991Z,3.20
2022-08-12T07:39:03.963Z,2.80
2022-08-12T07:40:04.007Z,2.40
2022-08-12T07:41:03.931Z,2.70
2022-08-12T07:42:03.918Z,2.90
2022-08-12T07:43:03.910Z,2.10
2022-08-12T07:44:04.765Z,2.40
2022-08-12T07:45:03.871Z,2.80
2022-08-12T07:46:03.870Z,2.10
2022-08-12T07:47:03.855Z,1.90
2022-08-12T07:48:03.840Z,1.90
2022-08-12T07:49:03.820Z,1.90
2022-08-12T07:50:06.585Z,2.10
2022-08-12T07:51:03.791Z,1.90
2022-08-12T07:52:03.792Z,1.90
2022-08-12T07:53:03.771Z,1.90
2022-08-12T07:54:03.752Z,1.60
2022-08-12T07:55:03.746Z,1.80
2022-08-12T07:56:03.734Z,1.50
2022-08-12T07:57:03.724Z,1.60
2022-08-12T07:58:03.713Z,1.60
2022-08-12T07:59:03.688Z,2.50
2022-08-12T08:00:03.674Z,1.60
2022-08-12T08:01:03.665Z,1.50
2022-08-12T08:02:03.745Z,2.00
2022-08-12T08:03:03.635Z,1.90
2022-08-12T08:04:03.690Z,1.90
2022-08-12T08:05:03.618Z,1.60
2022-08-12T08:06:03.610Z,1.70
2022-08-12T08:07:03.597Z,1.60
2022-08-12T08:08:03.598Z,1.60
2022-08-12T08:09:03.565Z,2.00
2022-08-12T08:10:03.559Z,1.40
2022-08-12T08:11:04.371Z,1.50
2022-08-12T08:12:03.529Z,1.80
2022-08-12T08:13:03.509Z,1.90
2022-08-12T08:14:03.523Z,1.30
2022-08-12T08:15:03.480Z,1.90
2022-08-12T08:16:04.224Z,1.70
2022-08-12T08:17:03.549Z,1.70
2022-08-12T08:18:03.452Z,2.10
2022-08-12T08:19:03.422Z,2.10
2022-08-12T08:20:04.574Z,2.70
2022-08-12T08:21:03.408Z,2.10
2022-08-12T08:22:03.399Z,1.90
2022-08-12T08:23:03.373Z,1.90
2022-08-12T08:24:05.202Z,1.70
2022-08-12T08:25:03.344Z,2.00
2022-08-12T08:26:04.341Z,1.90
2022-08-12T08:27:03.326Z,1.60
2022-08-12T08:28:03.316Z,2.40
2022-08-12T08:29:03.307Z,1.90
2022-08-12T08:30:03.286Z,1.80
2022-08-12T08:31:03.266Z,1.80
2022-08-12T08:32:03.273Z,1.90
2022-08-12T08:33:10.029Z,1.80
2022-08-12T08:34:27.719Z,2.40
2022-08-12T08:35:05.176Z,2.50
2022-08-12T08:36:03.224Z,2.10
2022-08-12T08:37:07.663Z,2.00
2022-08-12T08:38:03.190Z,2.10
2022-08-12T08:39:03.170Z,2.00
2022-08-12T08:40:03.162Z,2.10
2022-08-12T08:41:03.152Z,1.70
2022-08-12T08:42:15.208Z,1.80
2022-08-12T08:43:04.110Z,1.80
2022-08-12T08:44:03.101Z,2.00
2022-08-12T08:45:03.093Z,1.70
2022-08-12T08:46:03.083Z,1.70
2022-08-12T08:47:03.075Z,2.00
2022-08-12T08:48:03.054Z,2.00
2022-08-12T08:49:03.034Z,1.60
2022-08-12T08:50:03.031Z,1.80
2022-08-12T08:51:04.869Z,1.80
2022-08-12T08:52:03.015Z,1.60
2022-08-12T08:53:02.986Z,1.90
2022-08-12T08:54:03.079Z,1.60
2022-08-12T08:55:02.970Z,1.70
2022-08-12T08:56:05.357Z,1.50
2022-08-12T08:57:02.937Z,1.40
2022-08-12T08:58:02.927Z,1.40
2022-08-12T08:59:02.918Z,1.30
2022-08-12T09:00:02.904Z,1.50
2022-08-12T09:01:02.897Z,1.60
2022-08-12T09:02:03.028Z,1.40
2022-08-12T09:03:02.860Z,1.20
2022-08-12T09:05:10.123Z,1.30
2022-08-12T09:05:11.974Z,1.40
2022-08-12T09:06:03.821Z,1.20
2022-08-12T09:08:13.135Z,1.10
2022-08-12T09:09:03.781Z,1.10
2022-08-12T09:10:04.114Z,1.20
2022-08-12T09:11:02.754Z,1.90
2022-08-12T09:12:10.745Z,1.30
2022-08-12T09:13:06.300Z,1.50
2022-08-12T09:14:11.169Z,1.30
2022-08-12T09:15:16.552Z,1.00
2022-08-12T09:16:03.685Z,1.00
2022-08-12T09:17:02.677Z,1.10
2022-08-12T09:18:02.668Z,1.20
2022-08-12T09:19:02.645Z,1.00
2022-08-12T09:20:02.638Z,1.20
2022-08-12T09:21:02.815Z,1.30
2022-08-12T09:22:02.607Z,1.20
2022-08-12T09:24:06.255Z,1.20
2022-08-12T09:25:06.209Z,1.40
2022-08-12T09:26:03.877Z,1.00
2022-08-12T09:27:02.541Z,1.10
2022-08-12T09:28:05.328Z,1.10
2022-08-12T09:29:02.523Z,1.10
2022-08-12T09:30:11.235Z,1.50
2022-08-12T09:31:03.500Z,1.20
2022-08-12T09:32:08.497Z,1.10
2022-08-12T09:33:14.818Z,1.30
2022-08-12T09:34:26.004Z,1.20
2022-08-12T09:35:04.398Z,1.10
2022-08-12T09:36:05.277Z,1.00
2022-08-12T09:37:19.920Z,1.00
2022-08-12T09:38:03.419Z,1.10
2022-08-12T09:39:02.395Z,1.10
2022-08-12T09:41:01.894Z,1.10
2022-08-12T09:42:08.801Z,1.00
2022-08-12T09:42:09.603Z,1.30
2022-08-12T09:43:16.133Z,1.10
2022-08-12T09:44:05.210Z,1.50
2022-08-12T09:45:17.760Z,1.50
2022-08-12T09:46:20.133Z,1.40
2022-08-12T09:47:03.290Z,1.30
2022-08-12T09:48:03.287Z,1.30
2022-08-12T09:49:04.185Z,1.20
2022-08-12T09:50:03.255Z,1.30
2022-08-12T09:51:02.241Z,1.50
2022-08-12T09:52:02.223Z,1.10
2022-08-12T09:53:04.000Z,1.10
2022-08-12T09:54:08.534Z,1.30
2022-08-12T09:55:03.651Z,1.40
2022-08-12T09:56:56.573Z,1.10
2022-08-12T09:58:45.371Z,1.10
2022-08-12T09:58:45.562Z,1.10
2022-08-12T09:59:03.934Z,1.10
2022-08-12T10:00:13.044Z,1.30
2022-08-12T10:01:06.565Z,0.90
2022-08-12T10:02:52.771Z,1.20
2022-08-12T10:03:03.757Z,1.10
2022-08-12T10:04:03.950Z,1.30
2022-08-12T10:05:02.058Z,1.30
2022-08-12T10:06:27.298Z,1.40
2022-08-12T10:07:03.025Z,1.30
2022-08-12T10:08:02.530Z,1.30
2022-08-12T10:09:02.008Z,1.40
2022-08-12T10:10:02.002Z,1.20
2022-08-12T10:11:01.991Z,1.30
2022-08-12T10:12:10.148Z,1.40
2022-08-12T10:13:08.101Z,1.30
2022-08-12T10:14:02.940Z,1.40
2022-08-12T10:15:02.200Z,1.20
2022-08-12T10:16:05.353Z,1.10
2022-08-12T10:17:02.091Z,1.10
2022-08-12T10:18:07.105Z,1.60
2022-08-12T10:19:02.883Z,1.10
2022-08-12T10:20:01.977Z,1.50
2022-08-12T10:21:01.853Z,1.20
2022-08-12T10:22:01.845Z,1.50
2022-08-12T10:23:01.945Z,1.20
2022-08-12T10:24:01.815Z,1.20
2022-08-12T10:25:01.814Z,1.10
2022-08-12T10:26:35.641Z,1.50
2022-08-12T10:27:05.925Z,1.30
2022-08-12T10:28:05.034Z,1.30
2022-08-12T10:29:03.431Z,1.30
2022-08-12T10:30:40.288Z,1.30
2022-08-12T10:31:05.256Z,1.10
2022-08-12T10:32:20.990Z,1.90
2022-08-12T10:33:02.948Z,1.60
2022-08-12T10:34:07.520Z,1.20
2022-08-12T10:35:02.682Z,1.10
2022-08-12T10:36:01.685Z,1.30
2022-08-12T10:37:22.554Z,1.20
2022-08-12T10:38:33.551Z,1.50
2022-08-12T10:39:02.616Z,1.70
2022-08-12T10:40:09.411Z,1.60
2022-08-12T10:41:03.951Z,0.80
2022-08-12T10:42:01.622Z,1.20
2022-08-12T10:43:01.573Z,1.60
2022-08-12T10:44:01.563Z,1.20
2022-08-12T10:45:01.544Z,1.30
2022-08-12T10:46:01.545Z,1.30
2022-08-12T10:47:01.514Z,1.20
2022-08-12T10:48:21.651Z,1.10
2022-08-12T10:49:07.020Z,1.20
2022-08-12T10:50:28.581Z,1.10
2022-08-12T10:51:03.630Z,1.10
2022-08-12T10:52:32.601Z,1.10
2022-08-12T10:53:02.447Z,1.00
2022-08-12T10:54:02.440Z,1.10
2022-08-12T10:55:01.420Z,1.20
2022-08-12T10:56:02.134Z,1.10
2022-08-12T10:57:01.411Z,1.50
2022-08-12T10:58:27.368Z,1.90
2022-08-12T10:59:02.362Z,1.60
2022-08-12T11:00:35.146Z,1.20
2022-08-12T11:02:24.923Z,1.30
2022-08-12T11:04:25.039Z,1.00
2022-08-12T11:04:25.741Z,1.20
2022-08-12T11:04:25.901Z,1.30
2022-08-12T11:07:07.183Z,1.40
2022-08-12T11:07:07.395Z,1.10
2022-08-12T11:08:34.826Z,0.90
2022-08-12T11:08:35.054Z,1.70
2022-08-12T11:09:02.282Z,0.90
2022-08-12T11:10:03.016Z,1.10
2022-08-12T11:11:02.261Z,1.10
2022-08-12T11:12:35.291Z,1.80
2022-08-12T11:13:02.469Z,1.10
2022-08-12T11:14:01.181Z,1.00
2022-08-12T11:15:01.161Z,1.40
2022-08-12T11:16:03.956Z,1.40
2022-08-12T11:17:34.293Z,1.40
2022-08-12T11:18:03.184Z,1.40
2022-08-12T11:19:02.886Z,1.70
2022-08-12T11:20:01.990Z,1.30
2022-08-12T11:21:01.071Z,1.10
2022-08-12T11:22:03.100Z,1.00
2022-08-12T11:23:04.251Z,1.50
2022-08-12T11:24:02.048Z,1.50
2022-08-12T11:25:01.034Z,1.20
2022-08-12T11:26:05.346Z,1.10
2022-08-12T11:27:01.027Z,0.80
2022-08-12T11:28:00.997Z,0.90
2022-08-12T11:29:05.969Z,1.20
2022-08-12T11:30:06.799Z,1.20
2022-08-12T11:31:01.955Z,1.10
2022-08-12T11:32:02.403Z,1.10
2022-08-12T11:33:00.922Z,1.10
2022-08-12T11:34:05.425Z,0.90
2022-08-12T11:35:01.898Z,1.10
2022-08-12T11:36:00.888Z,0.90
2022-08-12T11:37:00.838Z,1.00
2022-08-12T11:38:00.988Z,0.80
2022-08-12T11:39:04.276Z,0.70
2022-08-12T11:40:00.813Z,1.00
2022-08-12T11:41:00.789Z,0.70
2022-08-12T11:42:00.782Z,0.90
2022-08-12T11:43:19.315Z,1.30
2022-08-12T11:44:11.102Z,1.10
2022-08-12T11:45:01.743Z,1.00
2022-08-12T11:46:00.734Z,0.70
2022-08-12T11:47:00.714Z,0.90
2022-08-12T11:48:00.704Z,1.00
2022-08-12T11:49:00.695Z,1.10
2022-08-12T11:50:01.327Z,1.20
2022-08-12T11:51:00.665Z,1.20
2022-08-12T11:52:00.657Z,1.10
2022-08-12T11:53:00.639Z,1.00
2022-08-12T11:54:01.523Z,1.10
2022-08-12T11:55:00.611Z,1.10
2022-08-12T11:56:00.603Z,0.90
2022-08-12T11:57:02.393Z,1.00
2022-08-12T11:58:10.064Z,1.00
2022-08-12T12:02:05.185Z,0.80
2022-08-12T12:03:00.595Z,0.90
2022-08-12T12:04:00.512Z,1.00
2022-08-12T12:05:00.491Z,1.10
2022-08-12T12:06:00.695Z,1.00
2022-08-12T12:07:07.469Z,1.50
2022-08-12T12:08:39.006Z,2.20
2022-08-12T12:09:01.498Z,1.20
2022-08-12T12:10:00.430Z,1.30
2022-08-12T12:11:00.429Z,1.30
2022-08-12T12:12:00.408Z,1.10
2022-08-12T12:13:00.399Z,1.20
2022-08-12T12:14:08.744Z,1.10
2022-08-12T12:15:06.860Z,1.00
2022-08-12T12:16:01.361Z,1.10
2022-08-12T12:17:00.343Z,1.20
2022-08-12T12:18:00.332Z,1.20
2022-08-12T12:19:00.343Z,1.00
2022-08-12T12:20:00.306Z,1.10
2022-08-12T12:21:00.299Z,0.90
2022-08-12T12:22:00.284Z,1.10
2022-08-12T12:23:00.277Z,0.80
2022-08-12T12:24:00.805Z,0.90
2022-08-12T12:25:13.303Z,1.00
2022-08-12T12:26:08.069Z,1.10
2022-08-12T12:27:01.606Z,1.30
2022-08-12T12:28:04.423Z,0.90
2022-08-12T12:29:01.219Z,0.90
2022-08-12T12:30:18.623Z,1.20
2022-08-12T12:31:01.174Z,0.90
2022-08-12T12:32:10.223Z,1.10
2022-08-12T12:33:01.145Z,1.20
2022-08-12T12:34:00.137Z,1.00
2022-08-12T12:36:05.320Z,1.20
2022-08-12T12:36:16.694Z,1.00
2022-08-12T12:37:01.121Z,1.40
2022-08-12T12:38:05.713Z,1.10
2022-08-12T12:39:01.099Z,1.10
2022-08-12T12:40:01.081Z,1.00
2022-08-12T12:41:00.061Z,0.90
2022-08-12T12:42:43.039Z,1.80
2022-08-12T12:43:05.130Z,1.00
2022-08-12T12:44:04.111Z,1.20
2022-08-12T12:44:59.995Z,1.00
2022-08-12T12:45:59.985Z,1.10
2022-08-12T12:47:00.908Z,1.10
2022-08-12T12:47:59.978Z,1.40
2022-08-12T12:48:59.969Z,1.10
2022-08-12T12:49:59.938Z,1.00
2022-08-12T12:50:59.928Z,1.10
2022-08-12T12:52:19.010Z,1.10
2022-08-12T12:53:00.907Z,1.10
2022-08-12T12:54:06.388Z,1.20
2022-08-12T12:55:00.882Z,1.10
2022-08-12T12:55:59.861Z,0.80
2022-08-12T12:56:59.855Z,1.00
2022-08-12T12:58:00.975Z,1.10
2022-08-12T12:58:59.833Z,1.10
2022-08-12T12:59:59.815Z,1.20
2022-08-12T13:00:59.845Z,1.20
2022-08-12T13:01:59.825Z,1.00
2022-08-12T13:02:59.789Z,1.20
2022-08-12T13:04:02.229Z,1.20
2022-08-12T13:04:59.748Z,1.30
2022-08-12T13:05:59.740Z,1.20
2022-08-12T13:06:59.737Z,1.10
2022-08-12T13:08:01.103Z,1.10
2022-08-12T13:09:02.887Z,1.20
2022-08-12T13:10:02.094Z,1.10
2022-08-12T13:10:59.693Z,1.20
2022-08-12T13:11:59.665Z,1.30
2022-08-12T13:12:59.663Z,1.10
2022-08-12T13:14:06.973Z,1.20
2022-08-12T13:15:00.626Z,0.90
2022-08-12T13:15:59.626Z,1.00
2022-08-12T13:16:59.616Z,1.20
2022-08-12T13:18:02.530Z,1.70
2022-08-12T13:18:59.575Z,1.40
2022-08-12T13:19:59.559Z,1.50
2022-08-12T13:20:59.848Z,1.40
2022-08-12T13:21:59.540Z,1.10
2022-08-12T13:22:59.532Z,1.10
2022-08-12T13:23:59.510Z,1.10